sensor_id;sensor_type;location;lat;lon;timestamp;P1;durP1;ratioP1;P2;durP2;ratioP2
1382;SDS011;685;47.196;11.880;2023-02-28T00:00:36;8.03;;;7.23;;
1382;SDS011;685;47.196;11.880;2023-02-28T00:03:05;9.83;;;7.70;;
1382;SDS011;685;47.196;11.880;2023-02-28T00:05:32;9.33;;;8.43;;
1382;SDS011;685;47.196;11.880;2023-02-28T00:08:00;9.83;;;7.10;;
1382;SDS011;685;47.196;11.880;2023-02-28T00:10:27;10.00;;;7.10;;
1382;SDS011;685;47.196;11.880;2023-02-28T00:12:58;9.40;;;7.17;;
1382;SDS011;685;47.196;11.880;2023-02-28T00:15:27;9.70;;;7.87;;
1382;SDS011;685;47.196;11.880;2023-02-28T00:17:53;9.10;;;7.80;;
1382;SDS011;685;47.196;11.880;2023-02-28T00:20:22;8.47;;;6.13;;
1382;SDS011;685;47.196;11.880;2023-02-28T00:22:50;11.10;;;7.57;;
1382;SDS011;685;47.196;11.880;2023-02-28T00:25:19;9.73;;;7.83;;
1382;SDS011;685;47.196;11.880;2023-02-28T00:27:47;8.13;;;7.33;;
1382;SDS011;685;47.196;11.880;2023-02-28T00:30:15;8.87;;;6.20;;
1382;SDS011;685;47.196;11.880;2023-02-28T00:32:43;9.03;;;7.30;;
1382;SDS011;685;47.196;11.880;2023-02-28T00:35:11;9.03;;;7.97;;
1382;SDS011;685;47.196;11.880;2023-02-28T00:37:39;8.47;;;7.60;;
1382;SDS011;685;47.196;11.880;2023-02-28T00:40:07;12.53;;;6.80;;
1382;SDS011;685;47.196;11.880;2023-02-28T00:42:36;9.10;;;7.67;;
1382;SDS011;685;47.196;11.880;2023-02-28T00:45:04;10.40;;;8.23;;
1382;SDS011;685;47.196;11.880;2023-02-28T00:47:31;8.63;;;6.80;;
1382;SDS011;685;47.196;11.880;2023-02-28T00:49:58;9.43;;;7.90;;
1382;SDS011;685;47.196;11.880;2023-02-28T00:52:26;10.17;;;7.83;;
1382;SDS011;685;47.196;11.880;2023-02-28T00:54:54;10.70;;;7.77;;
1382;SDS011;685;47.196;11.880;2023-02-28T00:57:21;9.53;;;8.70;;
1382;SDS011;685;47.196;11.880;2023-02-28T00:59:48;8.23;;;7.43;;
1382;SDS011;685;47.196;11.880;2023-02-28T01:02:15;8.77;;;7.00;;
1382;SDS011;685;47.196;11.880;2023-02-28T01:04:43;8.83;;;7.83;;
1382;SDS011;685;47.196;11.880;2023-02-28T01:07:09;10.90;;;8.37;;
1382;SDS011;685;47.196;11.880;2023-02-28T01:09:36;10.13;;;7.17;;
1382;SDS011;685;47.196;11.880;2023-02-28T01:12:05;8.20;;;7.40;;
1382;SDS011;685;47.196;11.880;2023-02-28T01:14:33;8.60;;;7.57;;
1382;SDS011;685;47.196;11.880;2023-02-28T01:17:00;10.40;;;7.77;;
1382;SDS011;685;47.196;11.880;2023-02-28T01:19:28;8.27;;;7.20;;
1382;SDS011;685;47.196;11.880;2023-02-28T01:21:55;10.17;;;7.23;;
1382;SDS011;685;47.196;11.880;2023-02-28T01:24:21;7.93;;;7.13;;
1382;SDS011;685;47.196;11.880;2023-02-28T01:26:48;9.13;;;7.20;;
1382;SDS011;685;47.196;11.880;2023-02-28T01:29:16;6.63;;;5.20;;
1382;SDS011;685;47.196;11.880;2023-02-28T01:31:43;8.27;;;6.07;;
1382;SDS011;685;47.196;11.880;2023-02-28T01:34:10;7.70;;;6.37;;
1382;SDS011;685;47.196;11.880;2023-02-28T01:36:37;7.70;;;6.67;;
1382;SDS011;685;47.196;11.880;2023-02-28T01:39:04;8.70;;;7.57;;
1382;SDS011;685;47.196;11.880;2023-02-28T01:41:32;6.63;;;5.93;;
1382;SDS011;685;47.196;11.880;2023-02-28T01:44:01;8.40;;;7.20;;
1382;SDS011;685;47.196;11.880;2023-02-28T01:46:32;7.33;;;6.40;;
1382;SDS011;685;47.196;11.880;2023-02-28T01:49:02;7.50;;;6.60;;
1382;SDS011;685;47.196;11.880;2023-02-28T01:51:33;6.97;;;6.27;;
1382;SDS011;685;47.196;11.880;2023-02-28T01:54:05;8.27;;;6.70;;
1382;SDS011;685;47.196;11.880;2023-02-28T01:56:39;7.77;;;6.70;;
1382;SDS011;685;47.196;11.880;2023-02-28T01:59:10;8.23;;;6.80;;
1382;SDS011;685;47.196;11.880;2023-02-28T02:01:41;10.77;;;6.50;;
1382;SDS011;685;47.196;11.880;2023-02-28T02:04:08;9.30;;;7.17;;
1382;SDS011;685;47.196;11.880;2023-02-28T02:06:37;7.73;;;6.63;;
1382;SDS011;685;47.196;11.880;2023-02-28T02:09:06;8.73;;;6.57;;
1382;SDS011;685;47.196;11.880;2023-02-28T02:11:33;6.27;;;5.67;;
1382;SDS011;685;47.196;11.880;2023-02-28T02:14:10;7.50;;;6.33;;
1382;SDS011;685;47.196;11.880;2023-02-28T02:16:57;6.87;;;5.23;;
1382;SDS011;685;47.196;11.880;2023-02-28T02:19:40;6.23;;;5.03;;
1382;SDS011;685;47.196;11.880;2023-02-28T02:25:42;5.57;;;4.73;;
1382;SDS011;685;47.196;11.880;2023-02-28T02:28:25;9.10;;;6.37;;
1382;SDS011;685;47.196;11.880;2023-02-28T02:31:26;9.33;;;6.77;;
1382;SDS011;685;47.196;11.880;2023-02-28T02:34:22;6.20;;;4.90;;
1382;SDS011;685;47.196;11.880;2023-02-28T02:37:08;5.63;;;4.53;;
1382;SDS011;685;47.196;11.880;2023-02-28T02:39:44;5.87;;;4.70;;
1382;SDS011;685;47.196;11.880;2023-02-28T02:42:20;6.60;;;4.90;;
1382;SDS011;685;47.196;11.880;2023-02-28T02:44:52;8.00;;;5.47;;
1382;SDS011;685;47.196;11.880;2023-02-28T02:47:26;6.00;;;5.10;;
1382;SDS011;685;47.196;11.880;2023-02-28T02:49:57;5.43;;;4.87;;
1382;SDS011;685;47.196;11.880;2023-02-28T02:52:31;7.23;;;4.93;;
1382;SDS011;685;47.196;11.880;2023-02-28T02:55:01;6.00;;;5.40;;
1382;SDS011;685;47.196;11.880;2023-02-28T02:57:30;6.40;;;5.33;;
1382;SDS011;685;47.196;11.880;2023-02-28T03:00:02;5.40;;;4.90;;
1382;SDS011;685;47.196;11.880;2023-02-28T03:02:33;5.10;;;4.13;;
1382;SDS011;685;47.196;11.880;2023-02-28T03:05:04;5.63;;;4.23;;
1382;SDS011;685;47.196;11.880;2023-02-28T03:07:35;5.70;;;4.70;;
1382;SDS011;685;47.196;11.880;2023-02-28T03:10:02;5.93;;;5.33;;
1382;SDS011;685;47.196;11.880;2023-02-28T03:12:50;22.33;;;11.60;;
1382;SDS011;685;47.196;11.880;2023-02-28T03:15:27;14.43;;;7.73;;
1382;SDS011;685;47.196;11.880;2023-02-28T03:18:03;5.87;;;5.27;;
1382;SDS011;685;47.196;11.880;2023-02-28T03:20:37;4.80;;;4.30;;
1382;SDS011;685;47.196;11.880;2023-02-28T03:23:13;4.70;;;4.20;;
1382;SDS011;685;47.196;11.880;2023-02-28T03:25:46;5.10;;;4.23;;
1382;SDS011;685;47.196;11.880;2023-02-28T03:28:25;5.17;;;4.40;;
1382;SDS011;685;47.196;11.880;2023-02-28T03:30:58;4.10;;;3.70;;
1382;SDS011;685;47.196;11.880;2023-02-28T03:33:30;5.67;;;4.43;;
1382;SDS011;685;47.196;11.880;2023-02-28T03:36:04;5.27;;;4.10;;
1382;SDS011;685;47.196;11.880;2023-02-28T03:38:35;4.80;;;4.07;;
1382;SDS011;685;47.196;11.880;2023-02-28T03:41:09;4.63;;;4.00;;
1382;SDS011;685;47.196;11.880;2023-02-28T03:43:42;5.77;;;5.23;;
1382;SDS011;685;47.196;11.880;2023-02-28T03:46:12;4.30;;;3.50;;
1382;SDS011;685;47.196;11.880;2023-02-28T03:48:47;5.17;;;3.73;;
1382;SDS011;685;47.196;11.880;2023-02-28T03:51:22;3.80;;;2.90;;
1382;SDS011;685;47.196;11.880;2023-02-28T03:53:50;3.30;;;3.00;;
1382;SDS011;685;47.196;11.880;2023-02-28T03:56:20;4.53;;;3.60;;
1382;SDS011;685;47.196;11.880;2023-02-28T03:58:51;5.40;;;3.80;;
1382;SDS011;685;47.196;11.880;2023-02-28T04:01:23;3.97;;;3.57;;
1382;SDS011;685;47.196;11.880;2023-02-28T04:03:54;5.30;;;3.60;;
1382;SDS011;685;47.196;11.880;2023-02-28T04:06:23;4.60;;;3.53;;
1382;SDS011;685;47.196;11.880;2023-02-28T04:08:50;4.43;;;3.67;;
1382;SDS011;685;47.196;11.880;2023-02-28T04:11:22;5.83;;;3.93;;
1382;SDS011;685;47.196;11.880;2023-02-28T04:13:51;5.40;;;3.90;;
1382;SDS011;685;47.196;11.880;2023-02-28T04:16:18;6.10;;;4.67;;
1382;SDS011;685;47.196;11.880;2023-02-28T04:18:45;4.33;;;3.83;;
1382;SDS011;685;47.196;11.880;2023-02-28T04:21:12;30.90;;;13.87;;
1382;SDS011;685;47.196;11.880;2023-02-28T04:23:40;6.77;;;5.20;;
1382;SDS011;685;47.196;11.880;2023-02-28T04:26:07;5.53;;;4.70;;
1382;SDS011;685;47.196;11.880;2023-02-28T04:28:36;5.30;;;4.33;;
1382;SDS011;685;47.196;11.880;2023-02-28T04:31:04;4.43;;;4.03;;
1382;SDS011;685;47.196;11.880;2023-02-28T04:33:31;7.50;;;4.03;;
1382;SDS011;685;47.196;11.880;2023-02-28T04:35:59;5.73;;;4.00;;
1382;SDS011;685;47.196;11.880;2023-02-28T04:38:28;15.30;;;9.70;;
1382;SDS011;685;47.196;11.880;2023-02-28T04:40:58;7.67;;;4.77;;
1382;SDS011;685;47.196;11.880;2023-02-28T04:43:25;5.70;;;4.00;;
1382;SDS011;685;47.196;11.880;2023-02-28T04:45:52;5.90;;;4.13;;
1382;SDS011;685;47.196;11.880;2023-02-28T04:48:21;6.67;;;4.90;;
1382;SDS011;685;47.196;11.880;2023-02-28T04:50:48;4.60;;;3.90;;
1382;SDS011;685;47.196;11.880;2023-02-28T04:53:15;4.07;;;3.40;;
1382;SDS011;685;47.196;11.880;2023-02-28T04:55:42;3.80;;;3.50;;
1382;SDS011;685;47.196;11.880;2023-02-28T04:58:11;4.27;;;3.87;;
1382;SDS011;685;47.196;11.880;2023-02-28T05:00:38;7.07;;;4.13;;
1382;SDS011;685;47.196;11.880;2023-02-28T05:03:05;5.37;;;3.77;;
1382;SDS011;685;47.196;11.880;2023-02-28T05:05:32;4.00;;;3.60;;
1382;SDS011;685;47.196;11.880;2023-02-28T05:07:59;3.20;;;2.83;;
1382;SDS011;685;47.196;11.880;2023-02-28T05:10:26;4.87;;;3.80;;
1382;SDS011;685;47.196;11.880;2023-02-28T05:12:53;4.30;;;3.90;;
1382;SDS011;685;47.196;11.880;2023-02-28T05:15:22;4.17;;;3.60;;
1382;SDS011;685;47.196;11.880;2023-02-28T05:17:49;4.43;;;3.50;;
1382;SDS011;685;47.196;11.880;2023-02-28T05:20:16;4.70;;;3.67;;
1382;SDS011;685;47.196;11.880;2023-02-28T05:22:44;3.87;;;2.90;;
1382;SDS011;685;47.196;11.880;2023-02-28T05:25:11;4.90;;;4.03;;
1382;SDS011;685;47.196;11.880;2023-02-28T05:27:41;4.50;;;4.00;;
1382;SDS011;685;47.196;11.880;2023-02-28T05:30:09;6.70;;;5.23;;
1382;SDS011;685;47.196;11.880;2023-02-28T05:32:39;5.30;;;4.80;;
1382;SDS011;685;47.196;11.880;2023-02-28T05:35:08;5.97;;;5.00;;
1382;SDS011;685;47.196;11.880;2023-02-28T05:37:36;5.10;;;4.60;;
1382;SDS011;685;47.196;11.880;2023-02-28T05:40:03;8.80;;;7.23;;
1382;SDS011;685;47.196;11.880;2023-02-28T05:42:32;5.90;;;4.73;;
1382;SDS011;685;47.196;11.880;2023-02-28T05:44:59;6.80;;;5.23;;
1382;SDS011;685;47.196;11.880;2023-02-28T05:47:26;5.50;;;3.83;;
1382;SDS011;685;47.196;11.880;2023-02-28T05:49:55;6.60;;;5.20;;
1382;SDS011;685;47.196;11.880;2023-02-28T05:52:22;6.30;;;5.70;;
1382;SDS011;685;47.196;11.880;2023-02-28T05:54:49;6.13;;;5.53;;
1382;SDS011;685;47.196;11.880;2023-02-28T05:57:16;6.10;;;4.57;;
1382;SDS011;685;47.196;11.880;2023-02-28T05:59:43;5.00;;;3.80;;
1382;SDS011;685;47.196;11.880;2023-02-28T06:02:10;6.00;;;4.10;;
1382;SDS011;685;47.196;11.880;2023-02-28T06:04:39;5.03;;;4.20;;
1382;SDS011;685;47.196;11.880;2023-02-28T06:07:08;7.20;;;3.90;;
1382;SDS011;685;47.196;11.880;2023-02-28T06:09:36;4.90;;;3.53;;
1382;SDS011;685;47.196;11.880;2023-02-28T06:12:04;5.80;;;3.40;;
1382;SDS011;685;47.196;11.880;2023-02-28T06:14:34;10.33;;;9.40;;
1382;SDS011;685;47.196;11.880;2023-02-28T06:17:15;6.30;;;5.00;;
1382;SDS011;685;47.196;11.880;2023-02-28T06:19:42;7.40;;;4.40;;
1382;SDS011;685;47.196;11.880;2023-02-28T06:22:10;6.53;;;4.13;;
1382;SDS011;685;47.196;11.880;2023-02-28T06:24:37;4.50;;;4.10;;
1382;SDS011;685;47.196;11.880;2023-02-28T06:27:04;7.10;;;4.60;;
1382;SDS011;685;47.196;11.880;2023-02-28T06:29:31;5.10;;;4.53;;
1382;SDS011;685;47.196;11.880;2023-02-28T06:31:58;5.27;;;4.77;;
1382;SDS011;685;47.196;11.880;2023-02-28T06:34:25;5.03;;;4.30;;
1382;SDS011;685;47.196;11.880;2023-02-28T06:36:52;5.83;;;5.13;;
1382;SDS011;685;47.196;11.880;2023-02-28T06:39:20;7.00;;;4.60;;
1382;SDS011;685;47.196;11.880;2023-02-28T06:41:47;5.87;;;3.83;;
1382;SDS011;685;47.196;11.880;2023-02-28T06:44:16;5.10;;;3.73;;
1382;SDS011;685;47.196;11.880;2023-02-28T06:46:44;4.53;;;3.63;;
1382;SDS011;685;47.196;11.880;2023-02-28T06:49:11;5.57;;;4.20;;
1382;SDS011;685;47.196;11.880;2023-02-28T06:51:40;3.67;;;3.10;;
1382;SDS011;685;47.196;11.880;2023-02-28T06:54:10;4.87;;;3.80;;
1382;SDS011;685;47.196;11.880;2023-02-28T06:56:39;6.10;;;4.60;;
1382;SDS011;685;47.196;11.880;2023-02-28T06:59:06;5.00;;;3.50;;
1382;SDS011;685;47.196;11.880;2023-02-28T07:01:33;6.13;;;4.50;;
1382;SDS011;685;47.196;11.880;2023-02-28T07:04:00;5.07;;;4.57;;
1382;SDS011;685;47.196;11.880;2023-02-28T07:06:27;9.13;;;4.47;;
1382;SDS011;685;47.196;11.880;2023-02-28T07:08:54;5.07;;;3.87;;
1382;SDS011;685;47.196;11.880;2023-02-28T07:11:21;5.40;;;4.00;;
1382;SDS011;685;47.196;11.880;2023-02-28T07:13:52;7.30;;;4.50;;
1382;SDS011;685;47.196;11.880;2023-02-28T07:16:18;5.73;;;4.70;;
1382;SDS011;685;47.196;11.880;2023-02-28T07:18:45;8.13;;;5.20;;
1382;SDS011;685;47.196;11.880;2023-02-28T07:21:12;7.03;;;5.50;;
1382;SDS011;685;47.196;11.880;2023-02-28T07:23:40;6.33;;;4.50;;
1382;SDS011;685;47.196;11.880;2023-02-28T07:26:07;5.53;;;4.57;;
1382;SDS011;685;47.196;11.880;2023-02-28T07:28:39;7.57;;;4.40;;
1382;SDS011;685;47.196;11.880;2023-02-28T07:31:08;6.00;;;5.40;;
1382;SDS011;685;47.196;11.880;2023-02-28T07:33:37;8.13;;;5.23;;
1382;SDS011;685;47.196;11.880;2023-02-28T07:36:05;7.73;;;5.67;;
1382;SDS011;685;47.196;11.880;2023-02-28T07:38:34;9.30;;;6.83;;
1382;SDS011;685;47.196;11.880;2023-02-28T07:41:01;7.70;;;6.70;;
1382;SDS011;685;47.196;11.880;2023-02-28T07:43:30;6.23;;;5.60;;
1382;SDS011;685;47.196;11.880;2023-02-28T07:46:00;7.80;;;5.67;;
1382;SDS011;685;47.196;11.880;2023-02-28T07:48:29;7.30;;;5.67;;
1382;SDS011;685;47.196;11.880;2023-02-28T07:50:56;10.03;;;5.70;;
1382;SDS011;685;47.196;11.880;2023-02-28T07:53:24;6.53;;;4.37;;
1382;SDS011;685;47.196;11.880;2023-02-28T07:55:54;6.80;;;4.20;;
1382;SDS011;685;47.196;11.880;2023-02-28T07:58:21;6.60;;;4.50;;
1382;SDS011;685;47.196;11.880;2023-02-28T08:00:49;6.17;;;4.70;;
1382;SDS011;685;47.196;11.880;2023-02-28T08:03:16;5.60;;;4.90;;
1382;SDS011;685;47.196;11.880;2023-02-28T08:05:45;6.00;;;4.40;;
1382;SDS011;685;47.196;11.880;2023-02-28T08:08:12;7.07;;;4.73;;
1382;SDS011;685;47.196;11.880;2023-02-28T08:10:39;6.27;;;5.27;;
1382;SDS011;685;47.196;11.880;2023-02-28T08:13:06;7.80;;;5.03;;
1382;SDS011;685;47.196;11.880;2023-02-28T08:15:33;6.77;;;5.57;;
1382;SDS011;685;47.196;11.880;2023-02-28T08:18:01;8.60;;;7.10;;
1382;SDS011;685;47.196;11.880;2023-02-28T08:20:28;8.90;;;7.60;;
1382;SDS011;685;47.196;11.880;2023-02-28T08:22:57;9.50;;;7.50;;
1382;SDS011;685;47.196;11.880;2023-02-28T08:25:24;11.20;;;7.20;;
1382;SDS011;685;47.196;11.880;2023-02-28T08:27:51;8.77;;;6.40;;
1382;SDS011;685;47.196;11.880;2023-02-28T08:30:18;7.43;;;5.83;;
1382;SDS011;685;47.196;11.880;2023-02-28T08:32:45;8.67;;;6.47;;
1382;SDS011;685;47.196;11.880;2023-02-28T08:35:12;9.30;;;6.23;;
1382;SDS011;685;47.196;11.880;2023-02-28T08:37:39;6.47;;;5.50;;
1382;SDS011;685;47.196;11.880;2023-02-28T08:40:08;8.17;;;5.57;;
1382;SDS011;685;47.196;11.880;2023-02-28T08:42:35;8.20;;;4.20;;
1382;SDS011;685;47.196;11.880;2023-02-28T08:45:03;4.53;;;4.13;;
1382;SDS011;685;47.196;11.880;2023-02-28T08:47:30;7.80;;;4.93;;
1382;SDS011;685;47.196;11.880;2023-02-28T08:49:57;9.80;;;6.17;;
1382;SDS011;685;47.196;11.880;2023-02-28T08:52:24;5.17;;;4.13;;
1382;SDS011;685;47.196;11.880;2023-02-28T08:54:51;5.23;;;4.40;;
1382;SDS011;685;47.196;11.880;2023-02-28T08:57:19;4.90;;;4.40;;
1382;SDS011;685;47.196;11.880;2023-02-28T08:59:46;4.23;;;3.83;;
1382;SDS011;685;47.196;11.880;2023-02-28T09:02:13;6.70;;;5.30;;
1382;SDS011;685;47.196;11.880;2023-02-28T09:04:41;5.13;;;4.60;;
1382;SDS011;685;47.196;11.880;2023-02-28T09:07:10;5.10;;;4.27;;
1382;SDS011;685;47.196;11.880;2023-02-28T09:09:37;4.67;;;3.70;;
1382;SDS011;685;47.196;11.880;2023-02-28T09:12:20;4.40;;;4.00;;
1382;SDS011;685;47.196;11.880;2023-02-28T09:14:48;5.70;;;5.03;;
1382;SDS011;685;47.196;11.880;2023-02-28T09:17:14;3.70;;;3.20;;
1382;SDS011;685;47.196;11.880;2023-02-28T09:19:42;5.80;;;4.47;;
1382;SDS011;685;47.196;11.880;2023-02-28T09:22:09;5.13;;;4.10;;
1382;SDS011;685;47.196;11.880;2023-02-28T09:24:36;4.83;;;4.00;;
1382;SDS011;685;47.196;11.880;2023-02-28T09:27:03;5.90;;;4.50;;
1382;SDS011;685;47.196;11.880;2023-02-28T09:29:33;5.70;;;4.60;;
1382;SDS011;685;47.196;11.880;2023-02-28T09:32:00;5.77;;;3.83;;
1382;SDS011;685;47.196;11.880;2023-02-28T09:34:28;3.80;;;3.33;;
1382;SDS011;685;47.196;11.880;2023-02-28T09:36:56;4.57;;;3.10;;
1382;SDS011;685;47.196;11.880;2023-02-28T09:39:23;4.80;;;3.60;;
1382;SDS011;685;47.196;11.880;2023-02-28T09:41:52;3.97;;;3.40;;
1382;SDS011;685;47.196;11.880;2023-02-28T09:44:21;4.60;;;3.63;;
1382;SDS011;685;47.196;11.880;2023-02-28T09:46:55;6.07;;;3.47;;
1382;SDS011;685;47.196;11.880;2023-02-28T09:49:28;4.97;;;3.93;;
1382;SDS011;685;47.196;11.880;2023-02-28T09:52:03;4.50;;;3.47;;
1382;SDS011;685;47.196;11.880;2023-02-28T09:54:34;5.77;;;4.20;;
1382;SDS011;685;47.196;11.880;2023-02-28T09:57:04;7.27;;;4.40;;
1382;SDS011;685;47.196;11.880;2023-02-28T09:59:42;4.83;;;3.90;;
1382;SDS011;685;47.196;11.880;2023-02-28T10:02:21;4.07;;;3.43;;
1382;SDS011;685;47.196;11.880;2023-02-28T10:05:08;5.40;;;4.03;;
1382;SDS011;685;47.196;11.880;2023-02-28T10:07:45;5.33;;;4.47;;
1382;SDS011;685;47.196;11.880;2023-02-28T10:10:24;5.50;;;4.63;;
1382;SDS011;685;47.196;11.880;2023-02-28T10:12:55;7.13;;;5.67;;
1382;SDS011;685;47.196;11.880;2023-02-28T10:15:25;5.83;;;4.80;;
1382;SDS011;685;47.196;11.880;2023-02-28T10:17:58;4.73;;;3.80;;
1382;SDS011;685;47.196;11.880;2023-02-28T10:20:28;4.10;;;3.63;;
1382;SDS011;685;47.196;11.880;2023-02-28T10:23:00;4.57;;;4.17;;
1382;SDS011;685;47.196;11.880;2023-02-28T10:25:32;6.60;;;4.67;;
1382;SDS011;685;47.196;11.880;2023-02-28T10:28:08;7.90;;;5.20;;
1382;SDS011;685;47.196;11.880;2023-02-28T10:30:37;5.63;;;4.63;;
1382;SDS011;685;47.196;11.880;2023-02-28T10:33:09;5.83;;;4.97;;
1382;SDS011;685;47.196;11.880;2023-02-28T10:35:49;5.10;;;4.60;;
1382;SDS011;685;47.196;11.880;2023-02-28T10:38:18;4.67;;;4.27;;
1382;SDS011;685;47.196;11.880;2023-02-28T10:40:47;6.93;;;5.40;;
1382;SDS011;685;47.196;11.880;2023-02-28T10:43:18;6.20;;;5.27;;
1382;SDS011;685;47.196;11.880;2023-02-28T10:45:55;6.93;;;5.50;;
1382;SDS011;685;47.196;11.880;2023-02-28T10:48:27;5.53;;;4.90;;
1382;SDS011;685;47.196;11.880;2023-02-28T10:50:58;6.27;;;5.30;;
1382;SDS011;685;47.196;11.880;2023-02-28T10:53:30;7.30;;;4.83;;
1382;SDS011;685;47.196;11.880;2023-02-28T10:56:00;7.53;;;6.23;;
1382;SDS011;685;47.196;11.880;2023-02-28T10:58:29;8.33;;;6.83;;
1382;SDS011;685;47.196;11.880;2023-02-28T11:00:58;8.53;;;6.53;;
1382;SDS011;685;47.196;11.880;2023-02-28T11:03:30;6.90;;;6.20;;
1382;SDS011;685;47.196;11.880;2023-02-28T11:06:03;10.77;;;7.70;;
1382;SDS011;685;47.196;11.880;2023-02-28T11:08:33;9.53;;;6.97;;
1382;SDS011;685;47.196;11.880;2023-02-28T11:11:04;7.57;;;6.77;;
1382;SDS011;685;47.196;11.880;2023-02-28T11:13:33;8.17;;;6.83;;
1382;SDS011;685;47.196;11.880;2023-02-28T11:16:02;11.33;;;7.30;;
1382;SDS011;685;47.196;11.880;2023-02-28T11:18:36;7.47;;;6.67;;
1382;SDS011;685;47.196;11.880;2023-02-28T11:21:07;8.90;;;6.67;;
1382;SDS011;685;47.196;11.880;2023-02-28T11:23:36;8.93;;;7.80;;
1382;SDS011;685;47.196;11.880;2023-02-28T11:26:06;10.47;;;7.40;;
1382;SDS011;685;47.196;11.880;2023-02-28T11:28:37;9.63;;;7.20;;
1382;SDS011;685;47.196;11.880;2023-02-28T11:31:09;9.20;;;7.47;;
1382;SDS011;685;47.196;11.880;2023-02-28T11:33:46;7.43;;;6.40;;
1382;SDS011;685;47.196;11.880;2023-02-28T11:36:17;10.70;;;8.10;;
1382;SDS011;685;47.196;11.880;2023-02-28T11:38:45;8.30;;;7.50;;
1382;SDS011;685;47.196;11.880;2023-02-28T11:41:21;10.10;;;7.50;;
1382;SDS011;685;47.196;11.880;2023-02-28T11:44:04;11.53;;;7.00;;
1382;SDS011;685;47.196;11.880;2023-02-28T11:46:42;8.27;;;7.37;;
1382;SDS011;685;47.196;11.880;2023-02-28T11:49:17;10.13;;;7.07;;
1382;SDS011;685;47.196;11.880;2023-02-28T11:51:57;10.97;;;7.50;;
1382;SDS011;685;47.196;11.880;2023-02-28T11:57:28;9.60;;;7.40;;
1382;SDS011;685;47.196;11.880;2023-02-28T12:00:19;7.50;;;6.67;;
1382;SDS011;685;47.196;11.880;2023-02-28T12:03:10;9.17;;;7.90;;
1382;SDS011;685;47.196;11.880;2023-02-28T12:05:52;38.53;;;22.30;;
1382;SDS011;685;47.196;11.880;2023-02-28T12:08:31;10.43;;;9.33;;
1382;SDS011;685;47.196;11.880;2023-02-28T12:11:16;10.53;;;8.50;;
1382;SDS011;685;47.196;11.880;2023-02-28T12:13:56;10.80;;;8.20;;
1382;SDS011;685;47.196;11.880;2023-02-28T12:16:43;9.20;;;7.50;;
1382;SDS011;685;47.196;11.880;2023-02-28T12:19:19;9.20;;;7.60;;
1382;SDS011;685;47.196;11.880;2023-02-28T12:24:48;10.00;;;8.10;;
1382;SDS011;685;47.196;11.880;2023-02-28T12:27:26;9.80;;;7.30;;
1382;SDS011;685;47.196;11.880;2023-02-28T12:29:58;8.23;;;7.33;;
1382;SDS011;685;47.196;11.880;2023-02-28T12:32:30;11.00;;;8.00;;
1382;SDS011;685;47.196;11.880;2023-02-28T12:35:00;9.27;;;7.47;;
1382;SDS011;685;47.196;11.880;2023-02-28T12:37:33;9.47;;;8.03;;
1382;SDS011;685;47.196;11.880;2023-02-28T12:40:06;10.13;;;7.47;;
1382;SDS011;685;47.196;11.880;2023-02-28T12:42:39;7.57;;;6.50;;
1382;SDS011;685;47.196;11.880;2023-02-28T12:45:10;8.90;;;8.00;;
1382;SDS011;685;47.196;11.880;2023-02-28T12:47:40;8.60;;;7.77;;
1382;SDS011;685;47.196;11.880;2023-02-28T12:50:11;8.77;;;7.47;;
1382;SDS011;685;47.196;11.880;2023-02-28T12:52:41;9.00;;;7.67;;
1382;SDS011;685;47.196;11.880;2023-02-28T12:55:19;14.13;;;9.07;;
1382;SDS011;685;47.196;11.880;2023-02-28T12:57:55;9.13;;;8.23;;
1382;SDS011;685;47.196;11.880;2023-02-28T13:00:32;13.73;;;8.53;;
1382;SDS011;685;47.196;11.880;2023-02-28T13:03:13;9.80;;;6.87;;
1382;SDS011;685;47.196;11.880;2023-02-28T13:09:01;10.40;;;6.60;;
1382;SDS011;685;47.196;11.880;2023-02-28T13:11:31;8.73;;;7.47;;
1382;SDS011;685;47.196;11.880;2023-02-28T13:14:05;8.50;;;7.30;;
1382;SDS011;685;47.196;11.880;2023-02-28T13:16:53;8.30;;;6.97;;
1382;SDS011;685;47.196;11.880;2023-02-28T13:19:27;8.73;;;7.00;;
1382;SDS011;685;47.196;11.880;2023-02-28T13:21:56;10.63;;;8.40;;
1382;SDS011;685;47.196;11.880;2023-02-28T13:27:21;9.20;;;7.40;;
1382;SDS011;685;47.196;11.880;2023-02-28T13:29:51;7.77;;;6.97;;
1382;SDS011;685;47.196;11.880;2023-02-28T13:32:19;9.53;;;8.33;;
1382;SDS011;685;47.196;11.880;2023-02-28T13:35:15;9.50;;;8.50;;
1382;SDS011;685;47.196;11.880;2023-02-28T13:38:09;9.07;;;8.07;;
1382;SDS011;685;47.196;11.880;2023-02-28T13:40:48;10.63;;;8.47;;
1382;SDS011;685;47.196;11.880;2023-02-28T13:43:16;8.40;;;7.50;;
1382;SDS011;685;47.196;11.880;2023-02-28T13:48:35;8.13;;;7.33;;
1382;SDS011;685;47.196;11.880;2023-02-28T13:53:56;9.13;;;7.77;;
1382;SDS011;685;47.196;11.880;2023-02-28T13:56:34;11.67;;;8.07;;
1382;SDS011;685;47.196;11.880;2023-02-28T13:59:15;8.50;;;7.63;;
1382;SDS011;685;47.196;11.880;2023-02-28T14:01:54;10.60;;;7.57;;
1382;SDS011;685;47.196;11.880;2023-02-28T14:04:45;9.80;;;8.37;;
1382;SDS011;685;47.196;11.880;2023-02-28T14:07:19;7.90;;;7.10;;
1382;SDS011;685;47.196;11.880;2023-02-28T14:09:51;7.33;;;6.63;;
1382;SDS011;685;47.196;11.880;2023-02-28T14:15:34;9.20;;;7.80;;
1382;SDS011;685;47.196;11.880;2023-02-28T14:18:17;9.70;;;7.50;;
1382;SDS011;685;47.196;11.880;2023-02-28T14:20:47;8.77;;;7.70;;
1382;SDS011;685;47.196;11.880;2023-02-28T14:23:22;10.17;;;9.00;;
1382;SDS011;685;47.196;11.880;2023-02-28T14:26:02;13.80;;;11.33;;
1382;SDS011;685;47.196;11.880;2023-02-28T14:28:43;10.60;;;8.50;;
1382;SDS011;685;47.196;11.880;2023-02-28T14:31:22;8.30;;;7.40;;
1382;SDS011;685;47.196;11.880;2023-02-28T14:33:58;8.80;;;7.33;;
1382;SDS011;685;47.196;11.880;2023-02-28T14:36:39;10.57;;;7.30;;
1382;SDS011;685;47.196;11.880;2023-02-28T14:39:11;9.27;;;7.73;;
1382;SDS011;685;47.196;11.880;2023-02-28T14:41:40;8.23;;;7.43;;
1382;SDS011;685;47.196;11.880;2023-02-28T14:44:17;10.57;;;8.00;;
1382;SDS011;685;47.196;11.880;2023-02-28T14:46:46;10.60;;;8.13;;
1382;SDS011;685;47.196;11.880;2023-02-28T14:49:17;8.67;;;6.73;;
1382;SDS011;685;47.196;11.880;2023-02-28T14:51:47;8.57;;;7.10;;
1382;SDS011;685;47.196;11.880;2023-02-28T14:54:16;8.20;;;6.53;;
1382;SDS011;685;47.196;11.880;2023-02-28T14:56:49;9.30;;;7.40;;
1382;SDS011;685;47.196;11.880;2023-02-28T14:59:23;8.63;;;6.83;;
1382;SDS011;685;47.196;11.880;2023-02-28T15:01:53;7.07;;;6.37;;
1382;SDS011;685;47.196;11.880;2023-02-28T15:04:51;8.93;;;7.10;;
1382;SDS011;685;47.196;11.880;2023-02-28T15:07:20;8.37;;;6.53;;
1382;SDS011;685;47.196;11.880;2023-02-28T15:10:06;7.43;;;6.43;;
1382;SDS011;685;47.196;11.880;2023-02-28T15:12:44;7.10;;;6.40;;
1382;SDS011;685;47.196;11.880;2023-02-28T15:15:18;6.57;;;5.87;;
1382;SDS011;685;47.196;11.880;2023-02-28T15:17:49;6.30;;;5.70;;
1382;SDS011;685;47.196;11.880;2023-02-28T15:20:19;6.80;;;6.20;;
1382;SDS011;685;47.196;11.880;2023-02-28T15:22:47;9.10;;;7.20;;
1382;SDS011;685;47.196;11.880;2023-02-28T15:25:18;7.80;;;6.63;;
1382;SDS011;685;47.196;11.880;2023-02-28T15:27:48;6.97;;;6.13;;
1382;SDS011;685;47.196;11.880;2023-02-28T15:30:17;7.10;;;5.90;;
1382;SDS011;685;47.196;11.880;2023-02-28T15:33:03;7.77;;;5.93;;
1382;SDS011;685;47.196;11.880;2023-02-28T15:35:33;6.53;;;5.83;;
1382;SDS011;685;47.196;11.880;2023-02-28T15:38:01;10.80;;;6.83;;
1382;SDS011;685;47.196;11.880;2023-02-28T15:40:31;7.33;;;6.47;;
1382;SDS011;685;47.196;11.880;2023-02-28T15:43:03;10.57;;;6.63;;
1382;SDS011;685;47.196;11.880;2023-02-28T15:45:34;8.07;;;6.30;;
1382;SDS011;685;47.196;11.880;2023-02-28T15:48:06;10.53;;;7.37;;
1382;SDS011;685;47.196;11.880;2023-02-28T15:50:41;9.40;;;7.40;;
1382;SDS011;685;47.196;11.880;2023-02-28T15:53:12;8.83;;;7.10;;
1382;SDS011;685;47.196;11.880;2023-02-28T15:55:41;8.93;;;6.77;;
1382;SDS011;685;47.196;11.880;2023-02-28T15:58:08;10.00;;;7.18;;
1382;SDS011;685;47.196;11.880;2023-02-28T16:00:39;9.73;;;7.50;;